sensor_id;sensor_type;location;lat;lon;timestamp;pressure;altitude;pressure_sealevel;temperature;humidity
66945;BME280;53853;51.982;5.928;2022-08-19T00:02:14;101262.34;;;20.16;73.77
66945;BME280;53853;51.982;5.928;2022-08-19T00:04:43;101250.69;;;20.15;73.59
66945;BME280;53853;51.982;5.928;2022-08-19T00:07:17;101246.31;;;20.14;73.63
66945;BME280;53853;51.982;5.928;2022-08-19T00:09:47;101246.94;;;20.09;74.01
66945;BME280;53853;51.982;5.928;2022-08-19T00:12:17;101251.72;;;20.07;74.14
66945;BME280;53853;51.982;5.928;2022-08-19T00:14:47;101250.47;;;20.03;74.56
66945;BME280;53853;51.982;5.928;2022-08-19T00:17:17;101252.50;;;20.01;74.59
66945;BME280;53853;51.982;5.928;2022-08-19T00:19:47;101254.59;;;19.99;74.87
66945;BME280;53853;51.982;5.928;2022-08-19T00:22:19;101261.91;;;19.99;74.17
66945;BME280;53853;51.982;5.928;2022-08-19T00:24:49;101256.03;;;19.95;74.48
66945;BME280;53853;51.982;5.928;2022-08-19T00:27:19;101249.16;;;19.93;74.70
66945;BME280;53853;51.982;5.928;2022-08-19T00:29:48;101247.69;;;19.90;74.66
66945;BME280;53853;51.982;5.928;2022-08-19T00:32:18;101245.59;;;19.85;75.03
66945;BME280;53853;51.982;5.928;2022-08-19T00:34:48;101241.44;;;19.83;74.85
66945;BME280;53853;51.982;5.928;2022-08-19T00:37:24;101234.53;;;19.80;75.27
66945;BME280;53853;51.982;5.928;2022-08-19T00:39:53;101238.69;;;19.76;76.40
66945;BME280;53853;51.982;5.928;2022-08-19T00:42:23;101235.31;;;19.74;74.99
66945;BME280;53853;51.982;5.928;2022-08-19T00:44:55;101241.78;;;19.73;75.46
66945;BME280;53853;51.982;5.928;2022-08-19T00:47:25;101244.47;;;19.73;75.25
66945;BME280;53853;51.982;5.928;2022-08-19T00:49:57;101252.78;;;19.71;75.57
66945;BME280;53853;51.982;5.928;2022-08-19T00:52:32;101243.19;;;19.69;75.61
66945;BME280;53853;51.982;5.928;2022-08-19T00:55:05;101249.00;;;19.66;75.63
66945;BME280;53853;51.982;5.928;2022-08-19T00:57:40;101260.84;;;19.65;75.70
66945;BME280;53853;51.982;5.928;2022-08-19T01:00:15;101254.81;;;19.63;75.86
66945;BME280;53853;51.982;5.928;2022-08-19T01:02:46;101251.47;;;19.61;75.78
66945;BME280;53853;51.982;5.928;2022-08-19T01:05:18;101253.34;;;19.60;75.89
66945;BME280;53853;51.982;5.928;2022-08-19T01:07:53;101252.50;;;19.60;75.44
66945;BME280;53853;51.982;5.928;2022-08-19T01:10:27;101250.19;;;19.57;75.23
66945;BME280;53853;51.982;5.928;2022-08-19T01:12:59;101251.25;;;19.55;75.14
66945;BME280;53853;51.982;5.928;2022-08-19T01:15:33;101250.78;;;19.52;75.75
66945;BME280;53853;51.982;5.928;2022-08-19T01:18:08;101244.75;;;19.50;75.38
66945;BME280;53853;51.982;5.928;2022-08-19T01:20:41;101245.78;;;19.49;75.43
66945;BME280;53853;51.982;5.928;2022-08-19T01:23:15;101257.00;;;19.46;75.79
66945;BME280;53853;51.982;5.928;2022-08-19T01:25:46;101262.16;;;19.41;76.99
66945;BME280;53853;51.982;5.928;2022-08-19T01:28:18;101256.34;;;19.37;76.24
66945;BME280;53853;51.982;5.928;2022-08-19T01:30:49;101262.75;;;19.36;76.13
66945;BME280;53853;51.982;5.928;2022-08-19T01:33:19;101259.44;;;19.34;76.52
66945;BME280;53853;51.982;5.928;2022-08-19T01:35:49;101260.25;;;19.34;76.34
66945;BME280;53853;51.982;5.928;2022-08-19T01:38:24;101255.72;;;19.35;76.11
66945;BME280;53853;51.982;5.928;2022-08-19T01:40:58;101252.81;;;19.36;75.73
66945;BME280;53853;51.982;5.928;2022-08-19T01:43:28;101237.84;;;19.41;75.41
66945;BME280;53853;51.982;5.928;2022-08-19T01:45:57;101245.56;;;19.44;75.67
66945;BME280;53853;51.982;5.928;2022-08-19T01:48:28;101248.50;;;19.49;75.29
66945;BME280;53853;51.982;5.928;2022-08-19T01:51:02;101259.09;;;19.50;75.52
66945;BME280;53853;51.982;5.928;2022-08-19T01:53:35;101258.91;;;19.52;75.59
66945;BME280;53853;51.982;5.928;2022-08-19T01:56:06;101254.97;;;19.54;75.56
66945;BME280;53853;51.982;5.928;2022-08-19T01:58:40;101260.63;;;19.60;75.44
66945;BME280;53853;51.982;5.928;2022-08-19T02:01:13;101258.53;;;19.62;75.36
66945;BME280;53853;51.982;5.928;2022-08-19T02:03:43;101260.22;;;19.63;75.21
66945;BME280;53853;51.982;5.928;2022-08-19T02:06:13;101259.19;;;19.64;75.30
66945;BME280;53853;51.982;5.928;2022-08-19T02:08:46;101263.16;;;19.68;75.11
66945;BME280;53853;51.982;5.928;2022-08-19T02:11:21;101271.53;;;19.73;74.85
66945;BME280;53853;51.982;5.928;2022-08-19T02:13:53;101267.56;;;19.76;74.45
66945;BME280;53853;51.982;5.928;2022-08-19T02:16:24;101267.00;;;19.80;74.30
66945;BME280;53853;51.982;5.928;2022-08-19T02:18:54;101270.34;;;19.82;74.02
66945;BME280;53853;51.982;5.928;2022-08-19T02:21:25;101261.19;;;19.83;74.20
66945;BME280;53853;51.982;5.928;2022-08-19T02:23:57;101254.97;;;19.83;74.32
66945;BME280;53853;51.982;5.928;2022-08-19T02:26:27;101257.22;;;19.79;74.31
66945;BME280;53853;51.982;5.928;2022-08-19T02:28:57;101269.09;;;19.78;73.99
66945;BME280;53853;51.982;5.928;2022-08-19T02:31:27;101279.63;;;19.73;74.02
66945;BME280;53853;51.982;5.928;2022-08-19T02:33:57;101268.16;;;19.71;73.73
66945;BME280;53853;51.982;5.928;2022-08-19T02:36:27;101276.66;;;19.68;74.09
66945;BME280;53853;51.982;5.928;2022-08-19T02:39:00;101270.84;;;19.64;73.96
66945;BME280;53853;51.982;5.928;2022-08-19T02:41:30;101263.94;;;19.62;74.21
66945;BME280;53853;51.982;5.928;2022-08-19T02:44:03;101269.56;;;19.60;74.25
66945;BME280;53853;51.982;5.928;2022-08-19T02:46:33;101260.00;;;19.58;73.92
66945;BME280;53853;51.982;5.928;2022-08-19T02:49:06;101261.00;;;19.57;73.45
66945;BME280;53853;51.982;5.928;2022-08-19T02:51:39;101260.78;;;19.51;74.05
66945;BME280;53853;51.982;5.928;2022-08-19T02:54:13;101255.78;;;19.48;74.11
66945;BME280;53853;51.982;5.928;2022-08-19T02:56:44;101261.56;;;19.45;74.30
66945;BME280;53853;51.982;5.928;2022-08-19T02:59:14;101263.00;;;19.41;74.29
66945;BME280;53853;51.982;5.928;2022-08-19T03:01:44;101267.97;;;19.37;74.49
66945;BME280;53853;51.982;5.928;2022-08-19T03:04:15;101265.84;;;19.33;74.84
66945;BME280;53853;51.982;5.928;2022-08-19T03:06:47;101262.72;;;19.29;74.92
66945;BME280;53853;51.982;5.928;2022-08-19T03:09:20;101265.81;;;19.26;74.94
66945;BME280;53853;51.982;5.928;2022-08-19T03:11:50;101264.31;;;19.24;75.11
66945;BME280;53853;51.982;5.928;2022-08-19T03:14:20;101270.13;;;19.21;75.03
66945;BME280;53853;51.982;5.928;2022-08-19T03:16:51;101265.78;;;19.19;74.92
66945;BME280;53853;51.982;5.928;2022-08-19T03:19:21;101266.16;;;19.16;75.26
66945;BME280;53853;51.982;5.928;2022-08-19T03:21:52;101271.13;;;19.13;75.46
66945;BME280;53853;51.982;5.928;2022-08-19T03:24:24;101261.53;;;19.10;75.47
66945;BME280;53853;51.982;5.928;2022-08-19T03:26:55;101271.06;;;19.06;75.82
66945;BME280;53853;51.982;5.928;2022-08-19T03:29:27;101272.31;;;19.04;75.80
66945;BME280;53853;51.982;5.928;2022-08-19T03:31:57;101276.03;;;19.03;75.74
66945;BME280;53853;51.982;5.928;2022-08-19T03:34:30;101271.00;;;18.99;75.76
66945;BME280;53853;51.982;5.928;2022-08-19T03:37:04;101272.25;;;18.97;75.81
66945;BME280;53853;51.982;5.928;2022-08-19T03:39:38;101272.63;;;18.94;76.15
66945;BME280;53853;51.982;5.928;2022-08-19T03:42:09;101273.66;;;18.93;75.99
66945;BME280;53853;51.982;5.928;2022-08-19T03:44:39;101271.16;;;18.91;75.43
66945;BME280;53853;51.982;5.928;2022-08-19T03:47:11;101269.03;;;18.87;75.85
66945;BME280;53853;51.982;5.928;2022-08-19T03:49:44;101268.56;;;18.83;76.24
66945;BME280;53853;51.982;5.928;2022-08-19T03:52:14;101269.59;;;18.82;76.48
66945;BME280;53853;51.982;5.928;2022-08-19T03:54:46;101268.13;;;18.79;76.58
66945;BME280;53853;51.982;5.928;2022-08-19T03:57:16;101269.13;;;18.78;76.71
66945;BME280;53853;51.982;5.928;2022-08-19T03:59:45;101270.16;;;18.77;76.85
66945;BME280;53853;51.982;5.928;2022-08-19T04:02:15;101269.97;;;18.79;76.80
66945;BME280;53853;51.982;5.928;2022-08-19T04:04:45;101272.84;;;18.77;76.56
66945;BME280;53853;51.982;5.928;2022-08-19T04:07:15;101269.53;;;18.75;76.38
66945;BME280;53853;51.982;5.928;2022-08-19T04:09:50;101278.66;;;18.74;76.42
66945;BME280;53853;51.982;5.928;2022-08-19T04:12:21;101273.63;;;18.71;76.79
66945;BME280;53853;51.982;5.928;2022-08-19T04:14:50;101268.63;;;18.68;76.91
66945;BME280;53853;51.982;5.928;2022-08-19T04:17:20;101269.00;;;18.65;76.90
66945;BME280;53853;51.982;5.928;2022-08-19T04:19:50;101270.88;;;18.64;77.20
66945;BME280;53853;51.982;5.928;2022-08-19T04:22:20;101268.38;;;18.63;76.78
66945;BME280;53853;51.982;5.928;2022-08-19T04:24:52;101266.69;;;18.62;76.33
66945;BME280;53853;51.982;5.928;2022-08-19T04:27:22;101258.34;;;18.57;76.91
66945;BME280;53853;51.982;5.928;2022-08-19T04:29:53;101258.09;;;18.52;77.15
66945;BME280;53853;51.982;5.928;2022-08-19T04:32:23;101246.47;;;18.51;77.17
66945;BME280;53853;51.982;5.928;2022-08-19T04:34:52;101254.94;;;18.48;77.18
66945;BME280;53853;51.982;5.928;2022-08-19T04:37:26;101248.06;;;18.45;77.22
66945;BME280;53853;51.982;5.928;2022-08-19T04:40:03;101249.06;;;18.44;77.67
66945;BME280;53853;51.982;5.928;2022-08-19T04:42:46;101248.06;;;18.45;77.14
66945;BME280;53853;51.982;5.928;2022-08-19T04:45:16;101242.03;;;18.43;77.12
66945;BME280;53853;51.982;5.928;2022-08-19T04:47:47;101244.91;;;18.42;77.28
66945;BME280;53853;51.982;5.928;2022-08-19T04:50:17;101241.56;;;18.40;77.79
66945;BME280;53853;51.982;5.928;2022-08-19T04:52:46;101246.97;;;18.40;77.60
66945;BME280;53853;51.982;5.928;2022-08-19T04:55:22;101249.00;;;18.38;77.84
66945;BME280;53853;51.982;5.928;2022-08-19T04:57:52;101247.34;;;18.37;77.85
66945;BME280;53853;51.982;5.928;2022-08-19T05:00:22;101251.25;;;18.34;78.02
66945;BME280;53853;51.982;5.928;2022-08-19T05:02:53;101253.75;;;18.36;78.09
66945;BME280;53853;51.982;5.928;2022-08-19T05:05:22;101254.59;;;18.36;78.01
66945;BME280;53853;51.982;5.928;2022-08-19T05:07:52;101257.97;;;18.38;78.10
66945;BME280;53853;51.982;5.928;2022-08-19T05:10:25;101249.88;;;18.38;77.59
66945;BME280;53853;51.982;5.928;2022-08-19T05:12:55;101255.25;;;18.38;77.77
66945;BME280;53853;51.982;5.928;2022-08-19T05:15:25;101256.28;;;18.37;77.80
66945;BME280;53853;51.982;5.928;2022-08-19T05:17:55;101256.47;;;18.36;78.25
66945;BME280;53853;51.982;5.928;2022-08-19T05:20:38;101259.59;;;18.39;78.15
66945;BME280;53853;51.982;5.928;2022-08-19T05:23:20;101264.00;;;18.40;78.15
66945;BME280;53853;51.982;5.928;2022-08-19T05:25:53;101260.91;;;18.43;78.06
66945;BME280;53853;51.982;5.928;2022-08-19T05:28:22;101266.94;;;18.45;78.07
66945;BME280;53853;51.982;5.928;2022-08-19T05:30:52;101265.34;;;18.51;77.79
66945;BME280;53853;51.982;5.928;2022-08-19T05:33:23;101263.28;;;18.53;77.86
66945;BME280;53853;51.982;5.928;2022-08-19T05:35:52;101260.22;;;18.56;77.70
66945;BME280;53853;51.982;5.928;2022-08-19T05:38:23;101262.97;;;18.63;77.63
66945;BME280;53853;51.982;5.928;2022-08-19T05:40:56;101263.41;;;18.67;77.86
66945;BME280;53853;51.982;5.928;2022-08-19T05:43:26;101264.50;;;18.72;78.07
66945;BME280;53853;51.982;5.928;2022-08-19T05:45:56;101267.47;;;18.77;78.01
66945;BME280;53853;51.982;5.928;2022-08-19T05:48:26;101275.81;;;18.82;77.83
66945;BME280;53853;51.982;5.928;2022-08-19T05:50:56;101274.25;;;18.88;77.76
66945;BME280;53853;51.982;5.928;2022-08-19T05:53:26;101275.97;;;18.96;77.51
66945;BME280;53853;51.982;5.928;2022-08-19T05:56:03;101274.16;;;19.03;77.29
66945;BME280;53853;51.982;5.928;2022-08-19T05:58:33;101267.13;;;19.09;77.40
66945;BME280;53853;51.982;5.928;2022-08-19T06:01:09;101273.63;;;19.14;77.37
66945;BME280;53853;51.982;5.928;2022-08-19T06:03:40;101270.78;;;19.23;77.37
66945;BME280;53853;51.982;5.928;2022-08-19T06:06:11;101267.31;;;19.29;77.72
66945;BME280;53853;51.982;5.928;2022-08-19T06:08:42;101273.38;;;19.37;77.99
66945;BME280;53853;51.982;5.928;2022-08-19T06:11:22;101273.22;;;19.46;78.07
66945;BME280;53853;51.982;5.928;2022-08-19T06:13:54;101277.00;;;19.51;78.36
66945;BME280;53853;51.982;5.928;2022-08-19T06:16:24;101276.22;;;19.58;78.18
66945;BME280;53853;51.982;5.928;2022-08-19T06:18:56;101283.13;;;19.67;78.32
66945;BME280;53853;51.982;5.928;2022-08-19T06:21:28;101286.91;;;19.72;78.22
66945;BME280;53853;51.982;5.928;2022-08-19T06:23:59;101279.03;;;19.78;78.02
66945;BME280;53853;51.982;5.928;2022-08-19T06:26:32;101282.81;;;19.83;77.71
66945;BME280;53853;51.982;5.928;2022-08-19T06:29:02;101287.44;;;19.89;77.84
66945;BME280;53853;51.982;5.928;2022-08-19T06:31:34;101293.69;;;19.97;77.44
66945;BME280;53853;51.982;5.928;2022-08-19T06:34:05;101288.34;;;20.03;77.17
66945;BME280;53853;51.982;5.928;2022-08-19T06:36:38;101283.78;;;20.11;77.32
66945;BME280;53853;51.982;5.928;2022-08-19T06:39:11;101288.38;;;20.17;76.96
66945;BME280;53853;51.982;5.928;2022-08-19T06:41:46;101291.97;;;20.24;76.82
66945;BME280;53853;51.982;5.928;2022-08-19T06:44:18;101283.03;;;20.30;76.78
66945;BME280;53853;51.982;5.928;2022-08-19T06:46:48;101288.66;;;20.35;76.38
66945;BME280;53853;51.982;5.928;2022-08-19T06:49:18;101285.16;;;20.41;76.40
66945;BME280;53853;51.982;5.928;2022-08-19T06:51:49;101289.31;;;20.51;76.48
66945;BME280;53853;51.982;5.928;2022-08-19T06:54:19;101291.44;;;20.62;76.00
66945;BME280;53853;51.982;5.928;2022-08-19T06:56:52;101279.38;;;20.71;75.79
66945;BME280;53853;51.982;5.928;2022-08-19T06:59:24;101286.88;;;20.76;75.64
66945;BME280;53853;51.982;5.928;2022-08-19T07:01:57;101291.47;;;20.82;75.80
66945;BME280;53853;51.982;5.928;2022-08-19T07:04:29;101294.84;;;20.91;75.17
66945;BME280;53853;51.982;5.928;2022-08-19T07:07:02;101292.34;;;20.89;74.47
66945;BME280;53853;51.982;5.928;2022-08-19T07:09:34;101287.53;;;20.91;74.36
66945;BME280;53853;51.982;5.928;2022-08-19T07:12:11;101294.00;;;20.97;74.20
66945;BME280;53853;51.982;5.928;2022-08-19T07:14:42;101290.47;;;21.03;74.63
66945;BME280;53853;51.982;5.928;2022-08-19T07:17:15;101298.19;;;21.13;74.17
66945;BME280;53853;51.982;5.928;2022-08-19T07:19:45;101304.84;;;21.24;74.19
66945;BME280;53853;51.982;5.928;2022-08-19T07:22:16;101309.41;;;21.30;73.53
66945;BME280;53853;51.982;5.928;2022-08-19T07:24:47;101302.75;;;21.32;73.48
66945;BME280;53853;51.982;5.928;2022-08-19T07:27:19;101313.16;;;21.35;72.57
66945;BME280;53853;51.982;5.928;2022-08-19T07:29:49;101311.72;;;21.40;73.13
66945;BME280;53853;51.982;5.928;2022-08-19T07:32:19;101313.56;;;21.46;72.53
66945;BME280;53853;51.982;5.928;2022-08-19T07:34:49;101308.19;;;21.52;72.95
66945;BME280;53853;51.982;5.928;2022-08-19T07:37:19;101320.69;;;21.60;71.80
66945;BME280;53853;51.982;5.928;2022-08-19T07:39:49;101316.50;;;21.64;71.93
66945;BME280;53853;51.982;5.928;2022-08-19T07:42:21;101318.56;;;21.69;71.12
66945;BME280;53853;51.982;5.928;2022-08-19T07:44:51;101319.41;;;21.69;71.05
66945;BME280;53853;51.982;5.928;2022-08-19T07:47:21;101319.81;;;21.80;70.82
66945;BME280;53853;51.982;5.928;2022-08-19T07:49:51;101326.88;;;21.87;69.46
66945;BME280;53853;51.982;5.928;2022-08-19T07:52:21;101323.75;;;21.91;68.86
66945;BME280;53853;51.982;5.928;2022-08-19T07:54:50;101328.75;;;21.87;69.48
66945;BME280;53853;51.982;5.928;2022-08-19T07:57:23;101323.75;;;21.91;69.27
66945;BME280;53853;51.982;5.928;2022-08-19T07:59:53;101336.88;;;22.00;69.30
66945;BME280;53853;51.982;5.928;2022-08-19T08:02:22;101331.38;;;22.14;69.29
66945;BME280;53853;51.982;5.928;2022-08-19T08:04:52;101333.41;;;22.25;69.42
66945;BME280;53853;51.982;5.928;2022-08-19T08:07:35;101331.34;;;22.34;69.24
66945;BME280;53853;51.982;5.928;2022-08-19T08:10:17;101327.53;;;22.41;68.57
66945;BME280;53853;51.982;5.928;2022-08-19T08:12:49;101331.88;;;22.49;68.67
66945;BME280;53853;51.982;5.928;2022-08-19T08:15:20;101323.88;;;22.61;68.06
66945;BME280;53853;51.982;5.928;2022-08-19T08:17:50;101327.78;;;22.72;66.66
66945;BME280;53853;51.982;5.928;2022-08-19T08:20:20;101333.56;;;22.82;66.95
66945;BME280;53853;51.982;5.928;2022-08-19T08:22:50;101337.13;;;22.83;65.36
66945;BME280;53853;51.982;5.928;2022-08-19T08:25:32;101339.41;;;22.79;65.30
66945;BME280;53853;51.982;5.928;2022-08-19T08:28:05;101345.50;;;22.81;65.85
66945;BME280;53853;51.982;5.928;2022-08-19T08:30:35;101357.41;;;22.80;65.59
66945;BME280;53853;51.982;5.928;2022-08-19T08:33:08;101362.63;;;22.82;65.17
66945;BME280;53853;51.982;5.928;2022-08-19T08:35:40;101356.16;;;22.83;65.99
66945;BME280;53853;51.982;5.928;2022-08-19T08:38:12;101361.78;;;22.81;65.01
66945;BME280;53853;51.982;5.928;2022-08-19T08:40:45;101361.59;;;22.83;65.96
66945;BME280;53853;51.982;5.928;2022-08-19T08:43:24;101363.44;;;22.89;64.62
66945;BME280;53853;51.982;5.928;2022-08-19T08:46:01;101351.47;;;22.90;64.07
66945;BME280;53853;51.982;5.928;2022-08-19T08:48:41;101357.34;;;22.93;62.97
66945;BME280;53853;51.982;5.928;2022-08-19T08:51:17;101360.88;;;22.94;62.78
66945;BME280;53853;51.982;5.928;2022-08-19T08:53:51;101357.09;;;22.95;63.19
66945;BME280;53853;51.982;5.928;2022-08-19T08:56:21;101360.22;;;22.98;62.85
66945;BME280;53853;51.982;5.928;2022-08-19T08:58:58;101359.56;;;23.03;63.08
66945;BME280;53853;51.982;5.928;2022-08-19T09:01:29;101351.41;;;23.03;61.03
66945;BME280;53853;51.982;5.928;2022-08-19T09:03:58;101352.00;;;23.05;62.20
66945;BME280;53853;51.982;5.928;2022-08-19T09:06:35;101344.03;;;23.10;62.43
66945;BME280;53853;51.982;5.928;2022-08-19T09:09:14;101348.81;;;23.15;61.10
66945;BME280;53853;51.982;5.928;2022-08-19T09:11:56;101350.50;;;23.16;60.46
66945;BME280;53853;51.982;5.928;2022-08-19T09:14:43;101345.28;;;23.14;61.43
66945;BME280;53853;51.982;5.928;2022-08-19T09:17:15;101341.28;;;23.17;61.91
66945;BME280;53853;51.982;5.928;2022-08-19T09:19:52;101346.69;;;23.24;60.78
66945;BME280;53853;51.982;5.928;2022-08-19T09:22:23;101346.47;;;23.25;60.44
66945;BME280;53853;51.982;5.928;2022-08-19T09:24:54;101344.13;;;23.29;60.74
66945;BME280;53853;51.982;5.928;2022-08-19T09:27:25;101343.22;;;23.35;60.41
66945;BME280;53853;51.982;5.928;2022-08-19T09:29:58;101349.06;;;23.39;60.52
66945;BME280;53853;51.982;5.928;2022-08-19T09:32:28;101345.44;;;23.45;60.57
66945;BME280;53853;51.982;5.928;2022-08-19T09:34:58;101345.53;;;23.57;60.67
66945;BME280;53853;51.982;5.928;2022-08-19T09:37:28;101354.25;;;23.65;59.34
66945;BME280;53853;51.982;5.928;2022-08-19T09:39:58;101346.75;;;23.61;60.04
66945;BME280;53853;51.982;5.928;2022-08-19T09:42:27;101352.56;;;23.64;60.44
66945;BME280;53853;51.982;5.928;2022-08-19T09:45:00;101344.34;;;23.71;61.16
66945;BME280;53853;51.982;5.928;2022-08-19T09:47:30;101350.56;;;23.78;61.00
66945;BME280;53853;51.982;5.928;2022-08-19T09:50:03;101352.22;;;23.79;61.01
66945;BME280;53853;51.982;5.928;2022-08-19T09:52:34;101357.44;;;23.81;60.93
66945;BME280;53853;51.982;5.928;2022-08-19T09:55:05;101359.09;;;23.82;60.96
66945;BME280;53853;51.982;5.928;2022-08-19T09:57:35;101371.59;;;23.90;60.57
66945;BME280;53853;51.982;5.928;2022-08-19T10:00:09;101368.75;;;23.84;60.40
66945;BME280;53853;51.982;5.928;2022-08-19T10:02:39;101372.09;;;23.80;59.82
66945;BME280;53853;51.982;5.928;2022-08-19T10:05:09;101372.50;;;23.83;59.99
66945;BME280;53853;51.982;5.928;2022-08-19T10:07:51;101376.53;;;23.74;59.13
66945;BME280;53853;51.982;5.928;2022-08-19T10:10:21;101376.75;;;23.73;58.91
66945;BME280;53853;51.982;5.928;2022-08-19T10:12:52;101371.31;;;23.73;59.56
66945;BME280;53853;51.982;5.928;2022-08-19T10:15:25;101372.56;;;23.77;58.41
66945;BME280;53853;51.982;5.928;2022-08-19T10:17:55;101366.28;;;23.76;58.81
66945;BME280;53853;51.982;5.928;2022-08-19T10:20:26;101371.72;;;23.76;58.41
66945;BME280;53853;51.982;5.928;2022-08-19T10:22:56;101370.06;;;23.75;58.47
66945;BME280;53853;51.982;5.928;2022-08-19T10:25:26;101368.16;;;23.76;58.72
66945;BME280;53853;51.982;5.928;2022-08-19T10:27:56;101367.09;;;23.77;58.74
66945;BME280;53853;51.982;5.928;2022-08-19T10:30:29;101361.22;;;23.80;57.98
66945;BME280;53853;51.982;5.928;2022-08-19T10:32:59;101364.53;;;23.82;57.90
66945;BME280;53853;51.982;5.928;2022-08-19T10:35:29;101367.91;;;23.84;57.58
66945;BME280;53853;51.982;5.928;2022-08-19T10:37:59;101370.63;;;23.84;56.52
66945;BME280;53853;51.982;5.928;2022-08-19T10:40:29;101360.63;;;23.78;57.49
66945;BME280;53853;51.982;5.928;2022-08-19T10:42:59;101356.22;;;23.77;58.10
66945;BME280;53853;51.982;5.928;2022-08-19T10:45:31;101349.06;;;23.82;58.42
66945;BME280;53853;51.982;5.928;2022-08-19T10:48:02;101358.28;;;23.81;57.37
66945;BME280;53853;51.982;5.928;2022-08-19T10:50:31;101357.50;;;23.74;58.13
66945;BME280;53853;51.982;5.928;2022-08-19T10:53:14;101366.72;;;23.73;57.93
66945;BME280;53853;51.982;5.928;2022-08-19T10:55:45;101356.00;;;23.78;57.95
66945;BME280;53853;51.982;5.928;2022-08-19T10:58:27;101355.13;;;23.84;58.16
66945;BME280;53853;51.982;5.928;2022-08-19T11:00:59;101367.38;;;23.94;57.49
66945;BME280;53853;51.982;5.928;2022-08-19T11:03:29;101347.34;;;23.88;57.44
66945;BME280;53853;51.982;5.928;2022-08-19T11:06:00;101359.00;;;23.95;57.37
66945;BME280;53853;51.982;5.928;2022-08-19T11:08:30;101360.63;;;23.96;57.54
66945;BME280;53853;51.982;5.928;2022-08-19T11:11:02;101361.41;;;24.03;57.44
66945;BME280;53853;51.982;5.928;2022-08-19T11:13:34;101353.63;;;24.07;57.20
66945;BME280;53853;51.982;5.928;2022-08-19T11:16:10;101346.25;;;24.08;57.36
66945;BME280;53853;51.982;5.928;2022-08-19T11:18:43;101348.31;;;24.12;57.49
66945;BME280;53853;51.982;5.928;2022-08-19T11:21:16;101343.63;;;24.19;57.69
66945;BME280;53853;51.982;5.928;2022-08-19T11:23:48;101344.69;;;24.18;56.78
66945;BME280;53853;51.982;5.928;2022-08-19T11:26:20;101348.38;;;24.24;56.84
66945;BME280;53853;51.982;5.928;2022-08-19T11:28:51;101344.97;;;24.29;56.18
66945;BME280;53853;51.982;5.928;2022-08-19T11:31:25;101343.63;;;24.38;56.37
66945;BME280;53853;51.982;5.928;2022-08-19T11:33:57;101354.41;;;24.45;56.41
66945;BME280;53853;51.982;5.928;2022-08-19T11:36:30;101350.59;;;24.46;56.01
66945;BME280;53853;51.982;5.928;2022-08-19T11:39:04;101347.53;;;24.42;55.79
66945;BME280;53853;51.982;5.928;2022-08-19T11:41:35;101358.06;;;24.38;55.36
66945;BME280;53853;51.982;5.928;2022-08-19T11:44:06;101344.44;;;24.38;55.57
66945;BME280;53853;51.982;5.928;2022-08-19T11:46:39;101340.78;;;24.45;55.50
66945;BME280;53853;51.982;5.928;2022-08-19T11:49:13;101338.19;;;24.50;54.86
66945;BME280;53853;51.982;5.928;2022-08-19T11:51:45;101335.47;;;24.50;54.96
66945;BME280;53853;51.982;5.928;2022-08-19T11:54:17;101341.28;;;24.53;55.30
66945;BME280;53853;51.982;5.928;2022-08-19T11:56:47;101342.97;;;24.54;54.99
66945;BME280;53853;51.982;5.928;2022-08-19T11:59:17;101341.91;;;24.55;54.71
66945;BME280;53853;51.982;5.928;2022-08-19T12:01:49;101334.34;;;24.57;54.93
66945;BME280;53853;51.982;5.928;2022-08-19T12:04:19;101335.41;;;24.56;55.46
66945;BME280;53853;51.982;5.928;2022-08-19T12:06:49;101331.75;;;24.63;56.10
66945;BME280;53853;51.982;5.928;2022-08-19T12:09:19;101332.13;;;24.66;55.73
66945;BME280;53853;51.982;5.928;2022-08-19T12:11:49;101334.16;;;24.71;54.84
66945;BME280;53853;51.982;5.928;2022-08-19T12:14:20;101337.03;;;24.76;55.20
66945;BME280;53853;51.982;5.928;2022-08-19T12:16:53;101335.50;;;24.80;54.42
66945;BME280;53853;51.982;5.928;2022-08-19T12:19:23;101337.63;;;24.78;54.28
66945;BME280;53853;51.982;5.928;2022-08-19T12:21:58;101320.34;;;24.84;54.62
66945;BME280;53853;51.982;5.928;2022-08-19T12:24:29;101327.34;;;24.92;54.96
66945;BME280;53853;51.982;5.928;2022-08-19T12:27:00;101330.78;;;24.99;54.55
66945;BME280;53853;51.982;5.928;2022-08-19T12:29:30;101326.91;;;25.07;55.11
66945;BME280;53853;51.982;5.928;2022-08-19T12:32:03;101331.19;;;25.14;54.13
66945;BME280;53853;51.982;5.928;2022-08-19T12:34:34;101326.66;;;25.20;54.08
66945;BME280;53853;51.982;5.928;2022-08-19T12:37:05;101321.34;;;25.25;53.78
66945;BME280;53853;51.982;5.928;2022-08-19T12:39:37;101318.78;;;25.30;54.06
66945;BME280;53853;51.982;5.928;2022-08-19T12:42:08;101314.28;;;25.36;53.73
66945;BME280;53853;51.982;5.928;2022-08-19T12:44:39;101327.41;;;25.39;53.83
66945;BME280;53853;51.982;5.928;2022-08-19T12:47:12;101326.72;;;25.44;54.03
66945;BME280;53853;51.982;5.928;2022-08-19T12:49:44;101323.50;;;25.47;53.92
66945;BME280;53853;51.982;5.928;2022-08-19T12:52:13;101325.75;;;25.50;53.88
66945;BME280;53853;51.982;5.928;2022-08-19T12:54:48;101322.09;;;25.56;53.56
66945;BME280;53853;51.982;5.928;2022-08-19T12:57:18;101311.88;;;25.52;53.60
66945;BME280;53853;51.982;5.928;2022-08-19T12:59:48;101314.59;;;25.52;53.49
66945;BME280;53853;51.982;5.928;2022-08-19T13:02:23;101308.09;;;25.53;53.37
66945;BME280;53853;51.982;5.928;2022-08-19T13:04:53;101306.78;;;25.55;54.10
66945;BME280;53853;51.982;5.928;2022-08-19T13:07:23;101312.84;;;25.57;54.19
66945;BME280;53853;51.982;5.928;2022-08-19T13:09:53;101302.25;;;25.61;54.36
66945;BME280;53853;51.982;5.928;2022-08-19T13:12:23;101305.00;;;25.61;53.75
66945;BME280;53853;51.982;5.928;2022-08-19T13:14:54;101300.81;;;25.58;54.03